Terminal Aerodrome Forecast
Issued by NWS

Home | Current Version | Previous Version | Text Only | Print | Product List | Glossary On
Versions: 1 2 3 4 5 6 7 8 9 10 11 12 13
769
FTUS45 KREV 211120
TAFMMH
TAF
KMMH 211120Z 2112/2212 VRB03KT P6SM FEW180
     FM211900 11007KT P6SM SCT180
     FM212200 30008KT P6SM FEW100 BKN180
     FM220200 VRB04KT P6SM SCT180=

USA.gov is the U.S. government's official web portal to all federal, state and local government web resources and services.